createdAt,value
2022-07-26T00:02:07.123Z,64.00
2022-07-26T00:04:34.084Z,64.10
2022-07-26T00:07:00.896Z,64.10
2022-07-26T00:09:27.811Z,64.80
2022-07-26T00:11:54.668Z,64.30
2022-07-26T00:14:21.513Z,64.50
2022-07-26T00:16:48.439Z,64.60
2022-07-26T00:19:15.381Z,64.70
2022-07-26T00:21:42.176Z,64.80
2022-07-26T00:24:09.174Z,64.80
2022-07-26T00:26:36.131Z,64.90
2022-07-26T00:29:04.733Z,65.10
2022-07-26T00:31:32.223Z,65.10
2022-07-26T00:33:59.211Z,65.20
2022-07-26T00:36:27.629Z,65.20
2022-07-26T00:38:54.581Z,65.30
2022-07-26T00:41:21.543Z,65.50
2022-07-26T00:44:00.290Z,65.50
2022-07-26T00:46:27.465Z,65.60
2022-07-26T00:48:54.574Z,65.70
2022-07-26T00:51:21.618Z,65.70
2022-07-26T00:53:48.781Z,65.90
2022-07-26T00:56:16.034Z,65.90
2022-07-26T00:58:43.380Z,66.00
2022-07-26T01:01:11.703Z,66.10
2022-07-26T01:03:39.830Z,66.10
2022-07-26T01:06:07.087Z,66.10
2022-07-26T01:08:34.153Z,66.20
2022-07-26T01:11:01.035Z,66.30
2022-07-26T01:13:31.866Z,66.30
2022-07-26T01:16:01.615Z,66.40
2022-07-26T01:18:28.431Z,66.40
2022-07-26T01:20:55.255Z,66.50
2022-07-26T01:23:22.266Z,66.60
2022-07-26T01:25:49.133Z,66.70
2022-07-26T01:28:20.283Z,66.90
2022-07-26T01:30:48.718Z,66.90
2022-07-26T01:33:15.672Z,67.00
2022-07-26T01:35:42.594Z,67.00
2022-07-26T01:38:09.320Z,67.20
2022-07-26T01:40:36.228Z,67.20
2022-07-26T01:43:03.105Z,67.30
2022-07-26T01:45:30.073Z,67.30
2022-07-26T01:47:57.017Z,67.40
2022-07-26T01:50:23.943Z,67.40
2022-07-26T01:52:50.834Z,67.40
2022-07-26T01:55:17.772Z,67.40
2022-07-26T01:57:47.813Z,67.50
2022-07-26T02:00:15.334Z,67.60
2022-07-26T02:02:42.266Z,67.60
2022-07-26T02:05:09.539Z,67.70
2022-07-26T02:07:42.769Z,67.80
2022-07-26T02:10:12.633Z,67.80
2022-07-26T02:12:40.045Z,67.80
2022-07-26T02:15:07.526Z,67.90
2022-07-26T02:17:34.717Z,67.90
2022-07-26T02:20:01.688Z,68.00
2022-07-26T02:22:28.484Z,67.90
2022-07-26T02:24:55.332Z,68.00
2022-07-26T02:27:22.380Z,68.10
2022-07-26T02:29:49.250Z,68.30
2022-07-26T02:32:16.147Z,68.30
2022-07-26T02:34:42.866Z,68.40
2022-07-26T02:37:09.647Z,68.50
2022-07-26T02:39:36.538Z,68.50
2022-07-26T02:42:03.506Z,68.60
2022-07-26T02:44:30.643Z,68.60
2022-07-26T02:46:57.531Z,68.50
2022-07-26T02:49:24.334Z,68.60
2022-07-26T02:52:06.472Z,68.60
2022-07-26T02:54:33.285Z,68.70
2022-07-26T02:57:00.063Z,68.80
2022-07-26T02:59:26.799Z,68.80
2022-07-26T03:01:53.774Z,68.90
2022-07-26T03:04:20.754Z,68.90
2022-07-26T03:06:47.730Z,69.00
2022-07-26T03:09:14.559Z,69.20
2022-07-26T03:11:41.274Z,69.40
2022-07-26T03:14:09.498Z,69.50
2022-07-26T03:16:36.893Z,69.60
2022-07-26T03:19:03.650Z,69.70
2022-07-26T03:21:30.502Z,70.00
2022-07-26T03:23:57.302Z,70.10
2022-07-26T03:26:24.094Z,70.20
2022-07-26T03:28:50.901Z,70.30
2022-07-26T03:31:17.823Z,70.50
2022-07-26T03:33:44.640Z,70.60
2022-07-26T03:36:15.712Z,70.70
2022-07-26T03:38:43.133Z,70.90
2022-07-26T03:41:12.279Z,71.00
2022-07-26T03:43:40.813Z,71.10
2022-07-26T03:46:07.701Z,71.20
2022-07-26T03:48:36.994Z,71.40
2022-07-26T03:51:04.062Z,71.50
2022-07-26T03:53:31.023Z,71.60
2022-07-26T03:56:17.667Z,71.70
2022-07-26T03:58:44.577Z,71.90
2022-07-26T04:01:11.618Z,71.90
2022-07-26T04:03:38.485Z,72.10
2022-07-26T04:06:06.082Z,72.20
2022-07-26T04:08:32.878Z,72.30
2022-07-26T04:10:59.718Z,72.30
2022-07-26T04:13:26.680Z,72.60
2022-07-26T04:15:53.654Z,72.70
2022-07-26T04:18:20.495Z,72.70
2022-07-26T04:20:51.309Z,72.80
2022-07-26T04:23:18.869Z,72.90
2022-07-26T04:25:45.688Z,73.10
2022-07-26T04:28:12.728Z,73.20
2022-07-26T04:30:40.069Z,73.30
2022-07-26T04:33:06.962Z,73.40
2022-07-26T04:35:33.794Z,73.50
2022-07-26T04:38:01.978Z,73.50
2022-07-26T04:40:33.402Z,73.60
2022-07-26T04:43:01.396Z,73.70
2022-07-26T04:45:28.718Z,73.80
2022-07-26T04:47:55.695Z,73.90
2022-07-26T04:50:22.863Z,74.00
2022-07-26T04:52:50.286Z,74.10
2022-07-26T04:55:17.728Z,74.30
2022-07-26T04:57:44.710Z,74.40
2022-07-26T05:00:23.865Z,74.40
2022-07-26T05:02:55.814Z,74.40
2022-07-26T05:05:23.203Z,74.40
2022-07-26T05:07:51.789Z,74.40
2022-07-26T05:10:19.003Z,74.50
2022-07-26T05:12:46.686Z,74.50
2022-07-26T05:15:14.396Z,74.60
2022-07-26T05:17:44.914Z,74.60
2022-07-26T05:20:15.245Z,74.80
2022-07-26T05:22:42.194Z,74.80
2022-07-26T05:25:09.277Z,74.80
2022-07-26T05:27:36.087Z,74.90
2022-07-26T05:30:03.026Z,75.00
2022-07-26T05:32:29.956Z,75.00
2022-07-26T05:34:56.810Z,75.10
2022-07-26T05:37:23.668Z,75.10
2022-07-26T05:39:50.507Z,75.10
2022-07-26T05:42:17.287Z,75.30
2022-07-26T05:44:44.075Z,75.50
2022-07-26T05:47:11.587Z,75.60
2022-07-26T05:49:39.708Z,75.80
2022-07-26T05:52:10.142Z,75.90
2022-07-26T05:54:37.142Z,76.00
2022-07-26T05:57:04.443Z,76.10
2022-07-26T05:59:31.675Z,76.10
2022-07-26T06:01:58.593Z,76.10
2022-07-26T06:04:26.100Z,76.00
2022-07-26T06:06:54.824Z,76.20
2022-07-26T06:09:24.130Z,76.40
2022-07-26T06:11:51.453Z,77.20
2022-07-26T06:14:18.737Z,76.80
2022-07-26T06:16:49.506Z,77.00
2022-07-26T06:19:23.674Z,77.40
2022-07-26T06:21:50.435Z,77.90
2022-07-26T06:24:17.566Z,77.70
2022-07-26T06:26:44.766Z,77.90
2022-07-26T06:29:11.557Z,78.20
2022-07-26T06:31:38.434Z,78.50
2022-07-26T06:34:05.440Z,78.60
2022-07-26T06:36:32.737Z,78.80
2022-07-26T06:38:59.670Z,79.00
2022-07-26T06:41:26.598Z,79.20
2022-07-26T06:43:53.395Z,79.50
2022-07-26T06:46:22.825Z,79.70
2022-07-26T06:48:52.777Z,79.90
2022-07-26T06:51:23.676Z,80.00
2022-07-26T06:53:50.586Z,80.00
2022-07-26T06:56:18.101Z,80.00
2022-07-26T06:58:45.059Z,80.10
2022-07-26T07:01:12.061Z,80.10
2022-07-26T07:03:39.106Z,80.00
2022-07-26T07:06:06.141Z,80.00
2022-07-26T07:08:33.004Z,79.90
2022-07-26T07:10:59.835Z,79.80
2022-07-26T07:13:28.692Z,79.80
2022-07-26T07:15:55.429Z,79.90
2022-07-26T07:18:22.185Z,79.90
2022-07-26T07:20:48.975Z,79.70
2022-07-26T07:23:15.755Z,79.60
2022-07-26T07:25:44.797Z,79.60
2022-07-26T07:28:11.903Z,79.50
2022-07-26T07:30:38.767Z,79.50
2022-07-26T07:33:09.503Z,79.30
2022-07-26T07:35:50.362Z,79.20
2022-07-26T07:38:17.292Z,79.30
2022-07-26T07:40:44.771Z,79.20
2022-07-26T07:43:11.560Z,79.00
2022-07-26T07:45:38.383Z,79.00
2022-07-26T07:48:05.483Z,79.00
2022-07-26T07:50:32.959Z,79.00
2022-07-26T07:53:02.010Z,79.00
2022-07-26T07:55:40.986Z,79.00
2022-07-26T07:58:11.106Z,79.00
2022-07-26T08:00:38.515Z,78.80
2022-07-26T08:03:05.423Z,78.50
2022-07-26T08:05:32.323Z,78.40
2022-07-26T08:07:59.269Z,78.30
2022-07-26T08:10:31.051Z,78.30
2022-07-26T08:12:57.966Z,78.20
2022-07-26T08:15:24.819Z,77.90
2022-07-26T08:17:54.107Z,77.70
2022-07-26T08:20:23.548Z,77.40
2022-07-26T08:22:52.035Z,77.10
2022-07-26T08:25:19.074Z,76.70
2022-07-26T08:28:02.610Z,76.40
2022-07-26T08:30:30.140Z,76.20
2022-07-26T08:32:57.186Z,75.90
2022-07-26T08:35:24.040Z,75.80
2022-07-26T08:37:50.934Z,75.70
2022-07-26T08:40:17.983Z,75.40
2022-07-26T08:42:52.801Z,75.30
2022-07-26T08:45:23.381Z,75.20
2022-07-26T08:48:14.987Z,75.10
2022-07-26T08:50:37.159Z,75.10
2022-07-26T08:53:06.978Z,75.10
2022-07-26T08:55:50.577Z,75.00
2022-07-26T08:58:20.695Z,74.80
2022-07-26T09:00:47.740Z,74.80
2022-07-26T09:03:26.746Z,74.60
2022-07-26T09:05:53.720Z,74.80
2022-07-26T09:08:28.858Z,74.70
2022-07-26T09:10:56.255Z,74.70
2022-07-26T09:13:26.055Z,74.70
2022-07-26T09:16:11.403Z,74.60
2022-07-26T09:18:38.593Z,74.40
2022-07-26T09:21:05.599Z,74.10
2022-07-26T09:23:42.417Z,73.90
2022-07-26T09:26:09.147Z,73.70
2022-07-26T09:28:35.960Z,73.40
2022-07-26T09:31:12.815Z,73.00
2022-07-26T09:33:49.210Z,72.90
2022-07-26T09:36:16.191Z,72.80
2022-07-26T09:38:48.056Z,72.40
2022-07-26T09:41:21.618Z,71.90
2022-07-26T09:43:53.486Z,71.20
2022-07-26T09:46:21.816Z,70.80
2022-07-26T09:51:40.535Z,70.40
2022-07-26T09:54:08.888Z,70.10
2022-07-26T09:57:02.531Z,70.00
2022-07-26T09:59:29.717Z,69.70
2022-07-26T10:01:58.109Z,69.80
2022-07-26T10:04:25.269Z,69.50
2022-07-26T10:06:52.105Z,69.30
2022-07-26T10:09:18.964Z,69.30
2022-07-26T10:11:56.983Z,69.10
2022-07-26T10:14:37.690Z,68.80
2022-07-26T10:17:35.231Z,68.50
2022-07-26T10:20:17.121Z,68.40
2022-07-26T10:22:47.134Z,68.40
2022-07-26T10:25:20.319Z,68.40
2022-07-26T10:27:47.975Z,68.10
2022-07-26T10:30:22.477Z,68.10
2022-07-26T10:32:59.642Z,67.60
2022-07-26T10:35:32.840Z,67.20
2022-07-26T10:38:09.833Z,67.20
2022-07-26T10:40:37.689Z,67.10
2022-07-26T10:43:38.945Z,67.00
2022-07-26T10:46:20.178Z,66.60
2022-07-26T10:48:59.450Z,66.50
2022-07-26T10:51:32.721Z,65.80
2022-07-26T10:54:11.648Z,64.90
2022-07-26T10:56:38.772Z,64.40
2022-07-26T10:59:05.803Z,64.40
2022-07-26T11:01:42.998Z,64.30
2022-07-26T11:04:19.964Z,64.10
2022-07-26T11:06:47.034Z,64.30
2022-07-26T11:09:13.940Z,64.40
2022-07-26T11:11:46.880Z,65.20
2022-07-26T11:14:16.264Z,64.90
2022-07-26T11:16:44.709Z,64.90
2022-07-26T11:19:22.151Z,65.00
2022-07-26T11:21:59.742Z,64.90
2022-07-26T11:24:27.038Z,64.90
2022-07-26T11:26:53.950Z,65.00
2022-07-26T11:29:38.755Z,65.00
2022-07-26T11:32:20.592Z,64.80
2022-07-26T11:34:59.998Z,64.60
2022-07-26T11:37:27.283Z,64.80
2022-07-26T11:39:54.137Z,64.80
2022-07-26T11:42:22.169Z,64.60
2022-07-26T11:44:49.783Z,64.40
2022-07-26T11:47:19.988Z,64.20
2022-07-26T11:50:01.031Z,63.90
2022-07-26T11:52:34.030Z,63.60
2022-07-26T11:55:00.917Z,63.40
2022-07-26T11:57:31.841Z,63.10
2022-07-26T11:59:59.716Z,62.90
2022-07-26T12:02:26.790Z,62.80
2022-07-26T12:05:16.439Z,62.70
2022-07-26T12:07:54.771Z,62.50
2022-07-26T12:10:24.277Z,62.20
2022-07-26T12:13:05.868Z,62.10
2022-07-26T12:15:44.916Z,61.80
2022-07-26T12:18:11.963Z,61.30
2022-07-26T12:20:38.767Z,61.30
2022-07-26T12:23:06.619Z,61.10
2022-07-26T12:25:37.300Z,61.20
2022-07-26T12:28:11.799Z,61.00
2022-07-26T12:30:38.697Z,60.70
2022-07-26T12:33:05.942Z,60.50
2022-07-26T12:35:42.512Z,60.20
2022-07-26T12:38:12.853Z,60.20
2022-07-26T12:40:43.035Z,60.40
2022-07-26T12:43:10.026Z,60.40
2022-07-26T12:45:38.106Z,60.60
2022-07-26T12:48:10.176Z,60.70
2022-07-26T12:50:37.051Z,60.80
2022-07-26T12:53:05.691Z,60.80
2022-07-26T12:55:32.835Z,60.60
2022-07-26T12:58:00.110Z,60.50
2022-07-26T13:00:27.115Z,61.10
2022-07-26T13:02:56.931Z,60.60
2022-07-26T13:05:23.704Z,60.70
2022-07-26T13:07:52.105Z,60.80
2022-07-26T13:10:35.545Z,60.90
2022-07-26T13:13:03.659Z,61.00
2022-07-26T13:15:36.138Z,61.10
2022-07-26T13:18:07.692Z,61.10
2022-07-26T13:20:36.747Z,61.30
2022-07-26T13:23:03.606Z,61.40
2022-07-26T13:25:33.516Z,61.70
2022-07-26T13:28:06.500Z,61.70
2022-07-26T13:30:33.544Z,61.90
2022-07-26T13:33:02.753Z,62.10
2022-07-26T13:35:29.594Z,62.30
2022-07-26T13:37:56.645Z,62.60
2022-07-26T13:40:27.546Z,62.80
2022-07-26T13:42:57.629Z,62.90
2022-07-26T13:45:24.547Z,63.20
2022-07-26T13:47:56.636Z,63.40
2022-07-26T13:50:23.680Z,63.40
2022-07-26T13:52:50.548Z,63.50
2022-07-26T13:55:17.505Z,63.50
2022-07-26T13:57:55.429Z,63.50
2022-07-26T14:00:27.475Z,63.40
2022-07-26T14:02:55.568Z,63.10
2022-07-26T14:05:22.649Z,62.80
2022-07-26T14:07:49.807Z,62.50
2022-07-26T14:10:17.543Z,61.90
2022-07-26T14:12:44.535Z,61.20
2022-07-26T14:15:16.669Z,60.40
2022-07-26T14:17:47.354Z,60.00
2022-07-26T14:20:14.845Z,58.80
2022-07-26T14:22:41.682Z,58.20
2022-07-26T14:25:08.999Z,57.70
2022-07-26T14:27:35.990Z,57.30
2022-07-26T14:30:03.605Z,57.20
2022-07-26T14:32:30.559Z,57.20
2022-07-26T14:34:57.832Z,57.10
2022-07-26T14:37:42.998Z,56.90
2022-07-26T14:40:13.162Z,56.70
2022-07-26T14:42:40.146Z,56.50
2022-07-26T14:45:08.337Z,56.20
2022-07-26T14:47:35.451Z,56.00
2022-07-26T14:50:07.118Z,55.50
2022-07-26T14:52:44.898Z,54.70
2022-07-26T14:55:12.120Z,53.80
2022-07-26T14:57:40.053Z,53.20
2022-07-26T15:00:09.082Z,52.70
2022-07-26T15:02:38.144Z,52.60
2022-07-26T15:05:05.364Z,52.30
2022-07-26T15:07:32.129Z,52.30
2022-07-26T15:09:59.029Z,52.50
2022-07-26T15:12:25.830Z,52.30
2022-07-26T15:14:52.714Z,52.20
2022-07-26T15:17:20.489Z,52.00
2022-07-26T15:19:47.260Z,52.20
2022-07-26T15:22:14.063Z,51.50
2022-07-26T15:24:40.944Z,51.40
2022-07-26T15:27:07.967Z,51.50
2022-07-26T15:29:35.929Z,51.80
2022-07-26T15:32:03.572Z,51.80
2022-07-26T15:34:30.450Z,51.60
2022-07-26T15:36:57.282Z,51.30
2022-07-26T15:39:24.100Z,51.00
2022-07-26T15:41:51.073Z,50.70
2022-07-26T15:44:19.839Z,50.70
2022-07-26T15:46:49.188Z,50.80
2022-07-26T15:49:16.582Z,50.90
2022-07-26T15:51:43.740Z,50.60
2022-07-26T15:54:12.020Z,50.60
2022-07-26T15:56:39.154Z,50.50
2022-07-26T15:59:09.160Z,51.20
2022-07-26T16:01:36.482Z,50.70
2022-07-26T16:04:04.961Z,50.60
2022-07-26T16:06:35.089Z,50.60
2022-07-26T16:09:16.439Z,50.70
2022-07-26T16:11:44.837Z,50.70
2022-07-26T16:14:11.802Z,50.80
2022-07-26T16:16:38.892Z,50.80
2022-07-26T16:19:05.768Z,50.70
2022-07-26T16:21:32.820Z,50.80
2022-07-26T16:24:04.447Z,50.70
2022-07-26T16:26:33.471Z,50.60
2022-07-26T16:29:00.955Z,50.80
2022-07-26T16:31:27.976Z,50.80
2022-07-26T16:33:55.000Z,50.40
2022-07-26T16:36:21.827Z,50.20
2022-07-26T16:38:48.685Z,49.90
2022-07-26T16:41:15.475Z,50.10
2022-07-26T16:43:42.907Z,50.10
2022-07-26T16:46:10.132Z,50.20
2022-07-26T16:48:37.082Z,50.00
2022-07-26T16:51:04.150Z,50.30
2022-07-26T16:53:31.119Z,50.60
2022-07-26T16:55:58.040Z,50.80
2022-07-26T16:58:25.049Z,50.60
2022-07-26T17:00:52.240Z,51.10
2022-07-26T17:03:19.512Z,51.20
2022-07-26T17:05:50.002Z,51.20
2022-07-26T17:08:16.985Z,51.40
2022-07-26T17:10:44.106Z,51.50
2022-07-26T17:13:14.344Z,51.50
2022-07-26T17:15:41.244Z,51.60
2022-07-26T17:18:08.081Z,51.60
2022-07-26T17:20:35.063Z,51.80
2022-07-26T17:23:01.934Z,51.90
2022-07-26T17:25:29.142Z,52.00
2022-07-26T17:27:56.072Z,52.10
2022-07-26T17:30:23.056Z,52.30
2022-07-26T17:32:50.175Z,52.30
2022-07-26T17:35:17.215Z,52.40
2022-07-26T17:37:44.007Z,52.50
2022-07-26T17:40:12.212Z,52.60
2022-07-26T17:42:38.996Z,52.60
2022-07-26T17:45:06.613Z,52.60
2022-07-26T17:47:33.372Z,52.80
2022-07-26T17:52:54.349Z,53.10
2022-07-26T17:55:23.985Z,53.50
2022-07-26T17:57:51.023Z,53.80
2022-07-26T18:00:19.091Z,54.30
2022-07-26T18:02:46.078Z,54.80
2022-07-26T18:05:12.973Z,55.30
2022-07-26T18:07:40.107Z,55.80
2022-07-26T18:10:07.337Z,56.10
2022-07-26T18:12:34.331Z,56.40
2022-07-26T18:15:01.244Z,56.70
2022-07-26T18:17:28.213Z,57.00
2022-07-26T18:19:54.966Z,57.20
2022-07-26T18:22:23.178Z,57.50
2022-07-26T18:24:50.108Z,57.90
2022-07-26T18:27:17.003Z,58.10
2022-07-26T18:29:43.895Z,58.30
2022-07-26T18:32:10.893Z,58.70
2022-07-26T18:34:37.734Z,59.00
2022-07-26T18:37:05.194Z,59.40
2022-07-26T18:39:32.737Z,59.80
2022-07-26T18:42:07.397Z,60.00
2022-07-26T18:44:37.094Z,59.90
2022-07-26T18:47:05.407Z,60.00
2022-07-26T18:49:35.471Z,60.90
2022-07-26T18:52:08.733Z,60.50
2022-07-26T18:54:36.457Z,60.80
2022-07-26T18:57:03.709Z,61.00
2022-07-26T18:59:31.183Z,61.20
2022-07-26T19:01:59.933Z,61.60
2022-07-26T19:04:27.768Z,61.70
2022-07-26T19:06:54.600Z,61.70
2022-07-26T19:09:21.429Z,61.90
2022-07-26T19:11:48.433Z,62.10
2022-07-26T19:14:15.748Z,62.40
2022-07-26T19:16:42.551Z,62.90
2022-07-26T19:19:10.047Z,63.20
2022-07-26T19:21:37.278Z,63.50
2022-07-26T19:24:04.498Z,63.90
2022-07-26T19:26:34.303Z,64.30
2022-07-26T19:29:04.532Z,64.50
2022-07-26T19:31:32.054Z,64.90
2022-07-26T19:33:59.027Z,65.10
2022-07-26T19:36:26.640Z,65.40
2022-07-26T19:39:00.110Z,65.70
2022-07-26T19:41:27.033Z,65.90
2022-07-26T19:43:53.952Z,66.00
2022-07-26T19:46:21.138Z,66.30
2022-07-26T19:48:52.517Z,66.40
2022-07-26T19:51:19.395Z,66.70
2022-07-26T19:53:46.633Z,66.90
2022-07-26T19:56:13.832Z,67.10
2022-07-26T19:58:40.710Z,67.20
2022-07-26T20:01:07.673Z,67.40
2022-07-26T20:03:34.739Z,67.70
2022-07-26T20:06:01.971Z,67.80
2022-07-26T20:08:28.904Z,68.00
2022-07-26T20:11:00.896Z,68.20
2022-07-26T20:13:30.633Z,68.50
2022-07-26T20:15:59.969Z,68.60
2022-07-26T20:18:28.391Z,69.00
2022-07-26T20:20:56.319Z,69.30
2022-07-26T20:23:23.844Z,69.60
2022-07-26T20:25:53.528Z,70.00
2022-07-26T20:28:23.846Z,70.20
2022-07-26T20:30:51.961Z,70.50
2022-07-26T20:33:21.868Z,70.90
2022-07-26T20:35:54.449Z,71.20
2022-07-26T20:38:22.469Z,71.60
2022-07-26T20:40:49.717Z,71.90
2022-07-26T20:43:17.615Z,72.20
2022-07-26T20:45:49.821Z,72.60
2022-07-26T20:48:19.930Z,73.00
2022-07-26T20:50:46.997Z,73.30
2022-07-26T20:53:13.938Z,73.60
2022-07-26T20:55:40.867Z,74.00
2022-07-26T20:58:10.591Z,74.20
2022-07-26T21:00:37.799Z,75.10
2022-07-26T21:03:04.646Z,74.80
2022-07-26T21:05:32.760Z,75.10
2022-07-26T21:08:00.081Z,75.30
2022-07-26T21:10:29.282Z,75.60
2022-07-26T21:13:01.149Z,75.90
2022-07-26T21:15:32.307Z,76.10
2022-07-26T21:17:59.477Z,76.30
2022-07-26T21:20:27.928Z,76.50
2022-07-26T21:23:03.638Z,76.60
2022-07-26T21:25:40.188Z,76.80
2022-07-26T21:28:09.685Z,76.90
2022-07-26T21:30:36.528Z,77.10
2022-07-26T21:33:03.438Z,77.30
2022-07-26T21:35:33.489Z,77.40
2022-07-26T21:38:03.246Z,77.60
2022-07-26T21:40:35.825Z,77.70
2022-07-26T21:43:03.196Z,77.90
2022-07-26T21:45:33.031Z,78.00
2022-07-26T21:48:03.290Z,78.10
2022-07-26T21:50:30.402Z,78.20
2022-07-26T21:53:03.084Z,78.30
2022-07-26T21:55:32.452Z,78.50
2022-07-26T21:58:02.707Z,78.60
2022-07-26T22:00:29.559Z,78.80
2022-07-26T22:02:56.451Z,78.90
2022-07-26T22:05:35.360Z,79.10
2022-07-26T22:08:02.459Z,79.20
2022-07-26T22:10:29.326Z,79.30
2022-07-26T22:12:56.333Z,79.40
2022-07-26T22:15:23.214Z,79.60
2022-07-26T22:17:55.026Z,79.70
2022-07-26T22:20:22.699Z,79.90
2022-07-26T22:22:49.772Z,80.00
2022-07-26T22:25:16.830Z,80.10
2022-07-26T22:27:43.798Z,80.20
2022-07-26T22:30:12.379Z,80.30
2022-07-26T22:32:39.190Z,80.40
2022-07-26T22:35:06.398Z,80.30
2022-07-26T22:37:33.209Z,80.30
2022-07-26T22:40:00.059Z,80.30
2022-07-26T22:42:26.963Z,80.30
2022-07-26T22:44:53.733Z,80.30
2022-07-26T22:47:20.793Z,80.40
2022-07-26T22:49:47.564Z,80.40
2022-07-26T22:52:14.374Z,80.50
2022-07-26T22:54:42.380Z,80.60
2022-07-26T22:57:09.311Z,80.80
2022-07-26T22:59:37.192Z,80.80
2022-07-26T23:02:04.422Z,81.00
2022-07-26T23:04:31.327Z,81.10
2022-07-26T23:06:58.742Z,81.10
2022-07-26T23:09:26.861Z,81.10
2022-07-26T23:11:53.629Z,81.20
2022-07-26T23:14:20.438Z,81.20
2022-07-26T23:16:47.248Z,81.30
2022-07-26T23:19:14.482Z,81.40
2022-07-26T23:21:41.542Z,81.50
2022-07-26T23:24:08.464Z,81.60
2022-07-26T23:26:35.510Z,81.80
2022-07-26T23:29:02.509Z,81.90
2022-07-26T23:31:29.347Z,82.00
2022-07-26T23:33:56.145Z,82.10
2022-07-26T23:36:27.483Z,82.20
2022-07-26T23:38:55.361Z,82.30
2022-07-26T23:41:22.394Z,82.40
2022-07-26T23:43:49.699Z,82.50
2022-07-26T23:46:16.616Z,82.70
2022-07-26T23:48:43.643Z,82.70
2022-07-26T23:51:10.640Z,82.80
2022-07-26T23:53:37.474Z,82.80
2022-07-26T23:56:04.618Z,82.90
2022-07-26T23:58:31.507Z,83.00
